sensor_id;sensor_type;location;lat;lon;timestamp;P1;durP1;ratioP1;P2;durP2;ratioP2
21843;SDS011;11084;52.482;9.108;2023-04-10T00:00:09;18.93;;;8.97;;
21843;SDS011;11084;52.482;9.108;2023-04-10T00:02:35;20.87;;;9.03;;
21843;SDS011;11084;52.482;9.108;2023-04-10T00:05:02;21.43;;;9.87;;
21843;SDS011;11084;52.482;9.108;2023-04-10T00:07:29;26.67;;;9.70;;
21843;SDS011;11084;52.482;9.108;2023-04-10T00:09:55;23.17;;;9.30;;
21843;SDS011;11084;52.482;9.108;2023-04-10T00:12:21;24.83;;;9.83;;
21843;SDS011;11084;52.482;9.108;2023-04-10T00:14:47;19.03;;;8.33;;
21843;SDS011;11084;52.482;9.108;2023-04-10T00:17:13;17.13;;;8.43;;
21843;SDS011;11084;52.482;9.108;2023-04-10T00:19:39;17.47;;;8.67;;
21843;SDS011;11084;52.482;9.108;2023-04-10T00:22:05;20.97;;;9.57;;
21843;SDS011;11084;52.482;9.108;2023-04-10T00:24:32;19.73;;;9.43;;
21843;SDS011;11084;52.482;9.108;2023-04-10T00:26:58;19.83;;;8.70;;
21843;SDS011;11084;52.482;9.108;2023-04-10T00:29:25;22.37;;;9.13;;
21843;SDS011;11084;52.482;9.108;2023-04-10T00:31:51;19.77;;;8.63;;
21843;SDS011;11084;52.482;9.108;2023-04-10T00:34:17;24.40;;;10.00;;
21843;SDS011;11084;52.482;9.108;2023-04-10T00:36:44;19.03;;;9.13;;
21843;SDS011;11084;52.482;9.108;2023-04-10T00:39:12;18.60;;;8.63;;
21843;SDS011;11084;52.482;9.108;2023-04-10T00:41:38;23.17;;;8.77;;
21843;SDS011;11084;52.482;9.108;2023-04-10T00:44:05;21.03;;;8.67;;
21843;SDS011;11084;52.482;9.108;2023-04-10T00:46:31;20.07;;;9.57;;
21843;SDS011;11084;52.482;9.108;2023-04-10T00:48:57;20.67;;;9.33;;
21843;SDS011;11084;52.482;9.108;2023-04-10T00:51:23;21.47;;;10.30;;
21843;SDS011;11084;52.482;9.108;2023-04-10T00:53:50;19.43;;;9.23;;
21843;SDS011;11084;52.482;9.108;2023-04-10T00:56:18;18.33;;;9.27;;
21843;SDS011;11084;52.482;9.108;2023-04-10T00:58:45;19.23;;;8.87;;
21843;SDS011;11084;52.482;9.108;2023-04-10T01:01:12;19.97;;;8.90;;
21843;SDS011;11084;52.482;9.108;2023-04-10T01:03:38;20.63;;;9.27;;
21843;SDS011;11084;52.482;9.108;2023-04-10T01:12:01;21.33;;;9.80;;
21843;SDS011;11084;52.482;9.108;2023-04-10T01:15:08;25.67;;;10.30;;
21843;SDS011;11084;52.482;9.108;2023-04-10T01:20:37;18.40;;;9.03;;
21843;SDS011;11084;52.482;9.108;2023-04-10T01:29:29;21.67;;;9.83;;
21843;SDS011;11084;52.482;9.108;2023-04-10T01:34:32;20.60;;;9.50;;
21843;SDS011;11084;52.482;9.108;2023-04-10T01:37:04;21.60;;;10.30;;
21843;SDS011;11084;52.482;9.108;2023-04-10T01:40:00;28.67;;;10.90;;
21843;SDS011;11084;52.482;9.108;2023-04-10T01:42:33;21.47;;;10.13;;
21843;SDS011;11084;52.482;9.108;2023-04-10T01:45:07;22.10;;;9.17;;
21843;SDS011;11084;52.482;9.108;2023-04-10T01:47:38;22.17;;;9.63;;
21843;SDS011;11084;52.482;9.108;2023-04-10T01:50:04;27.30;;;9.47;;
21843;SDS011;11084;52.482;9.108;2023-04-10T01:52:32;21.33;;;9.67;;
21843;SDS011;11084;52.482;9.108;2023-04-10T01:55:11;22.23;;;10.23;;
21843;SDS011;11084;52.482;9.108;2023-04-10T01:57:43;20.73;;;8.57;;
21843;SDS011;11084;52.482;9.108;2023-04-10T02:00:16;20.73;;;8.97;;
21843;SDS011;11084;52.482;9.108;2023-04-10T02:02:42;19.50;;;9.33;;
21843;SDS011;11084;52.482;9.108;2023-04-10T02:05:09;21.20;;;9.97;;
21843;SDS011;11084;52.482;9.108;2023-04-10T02:07:44;18.83;;;8.30;;
21843;SDS011;11084;52.482;9.108;2023-04-10T02:30:39;17.23;;;8.40;;
21843;SDS011;11084;52.482;9.108;2023-04-10T02:33:09;21.87;;;9.83;;
21843;SDS011;11084;52.482;9.108;2023-04-10T02:35:35;20.30;;;8.50;;
21843;SDS011;11084;52.482;9.108;2023-04-10T02:38:02;16.27;;;7.50;;
21843;SDS011;11084;52.482;9.108;2023-04-10T02:40:29;22.10;;;9.10;;
21843;SDS011;11084;52.482;9.108;2023-04-10T02:43:15;25.57;;;8.97;;
21843;SDS011;11084;52.482;9.108;2023-04-10T02:45:41;18.67;;;8.63;;
21843;SDS011;11084;52.482;9.108;2023-04-10T02:48:11;21.30;;;9.70;;
21843;SDS011;11084;52.482;9.108;2023-04-10T02:50:37;20.67;;;9.50;;
21843;SDS011;11084;52.482;9.108;2023-04-10T02:53:03;23.60;;;9.93;;
21843;SDS011;11084;52.482;9.108;2023-04-10T02:55:29;16.83;;;8.10;;
21843;SDS011;11084;52.482;9.108;2023-04-10T02:57:55;27.70;;;9.20;;
21843;SDS011;11084;52.482;9.108;2023-04-10T03:00:21;27.20;;;9.27;;
21843;SDS011;11084;52.482;9.108;2023-04-10T03:03:07;19.10;;;9.13;;
21843;SDS011;11084;52.482;9.108;2023-04-10T03:05:41;21.77;;;8.57;;
21843;SDS011;11084;52.482;9.108;2023-04-10T03:08:08;24.77;;;9.87;;
21843;SDS011;11084;52.482;9.108;2023-04-10T03:10:34;19.07;;;8.53;;
21843;SDS011;11084;52.482;9.108;2023-04-10T03:13:00;17.60;;;8.90;;
21843;SDS011;11084;52.482;9.108;2023-04-10T03:15:26;16.23;;;8.53;;
21843;SDS011;11084;52.482;9.108;2023-04-10T03:17:52;18.57;;;8.73;;
21843;SDS011;11084;52.482;9.108;2023-04-10T03:20:18;16.60;;;8.20;;
21843;SDS011;11084;52.482;9.108;2023-04-10T03:22:45;23.33;;;10.57;;
21843;SDS011;11084;52.482;9.108;2023-04-10T03:25:11;17.43;;;9.37;;
21843;SDS011;11084;52.482;9.108;2023-04-10T03:27:37;20.83;;;9.73;;
21843;SDS011;11084;52.482;9.108;2023-04-10T03:30:03;26.77;;;9.70;;
21843;SDS011;11084;52.482;9.108;2023-04-10T03:32:37;19.57;;;9.93;;
21843;SDS011;11084;52.482;9.108;2023-04-10T03:35:06;22.67;;;9.07;;
21843;SDS011;11084;52.482;9.108;2023-04-10T03:37:34;21.47;;;8.47;;
21843;SDS011;11084;52.482;9.108;2023-04-10T03:40:04;18.47;;;8.90;;
21843;SDS011;11084;52.482;9.108;2023-04-10T03:42:31;15.50;;;7.97;;
21843;SDS011;11084;52.482;9.108;2023-04-10T03:44:58;19.03;;;8.70;;
21843;SDS011;11084;52.482;9.108;2023-04-10T03:47:25;17.47;;;7.97;;
21843;SDS011;11084;52.482;9.108;2023-04-10T03:49:51;18.30;;;8.50;;
21843;SDS011;11084;52.482;9.108;2023-04-10T03:52:18;17.93;;;8.10;;
21843;SDS011;11084;52.482;9.108;2023-04-10T03:54:44;17.10;;;8.33;;
21843;SDS011;11084;52.482;9.108;2023-04-10T03:57:21;20.60;;;7.77;;
21843;SDS011;11084;52.482;9.108;2023-04-10T03:59:48;16.07;;;8.63;;
21843;SDS011;11084;52.482;9.108;2023-04-10T04:02:16;14.87;;;7.70;;
21843;SDS011;11084;52.482;9.108;2023-04-10T04:04:43;14.83;;;6.90;;
21843;SDS011;11084;52.482;9.108;2023-04-10T04:07:32;17.50;;;7.77;;
21843;SDS011;11084;52.482;9.108;2023-04-10T04:10:09;17.33;;;7.47;;
21843;SDS011;11084;52.482;9.108;2023-04-10T04:12:55;19.03;;;8.90;;
21843;SDS011;11084;52.482;9.108;2023-04-10T04:15:48;16.40;;;7.97;;
21843;SDS011;11084;52.482;9.108;2023-04-10T04:18:34;18.03;;;7.97;;
21843;SDS011;11084;52.482;9.108;2023-04-10T04:21:19;18.60;;;7.93;;
21843;SDS011;11084;52.482;9.108;2023-04-10T04:24:20;18.57;;;8.03;;
21843;SDS011;11084;52.482;9.108;2023-04-10T04:27:09;16.80;;;7.53;;
21843;SDS011;11084;52.482;9.108;2023-04-10T04:29:59;14.17;;;6.40;;
21843;SDS011;11084;52.482;9.108;2023-04-10T04:32:44;15.70;;;8.03;;
21843;SDS011;11084;52.482;9.108;2023-04-10T04:35:28;17.57;;;7.83;;
21843;SDS011;11084;52.482;9.108;2023-04-10T04:38:15;17.77;;;7.27;;
21843;SDS011;11084;52.482;9.108;2023-04-10T04:40:59;16.53;;;7.33;;
21843;SDS011;11084;52.482;9.108;2023-04-10T04:43:44;12.30;;;6.70;;
21843;SDS011;11084;52.482;9.108;2023-04-10T04:46:21;17.67;;;7.53;;
21843;SDS011;11084;52.482;9.108;2023-04-10T04:48:59;17.67;;;7.80;;
21843;SDS011;11084;52.482;9.108;2023-04-10T04:51:51;18.67;;;7.63;;
21843;SDS011;11084;52.482;9.108;2023-04-10T04:54:33;20.03;;;6.90;;
21843;SDS011;11084;52.482;9.108;2023-04-10T04:57:18;18.23;;;7.50;;
21843;SDS011;11084;52.482;9.108;2023-04-10T05:00:13;14.97;;;7.07;;
21843;SDS011;11084;52.482;9.108;2023-04-10T05:03:00;19.93;;;8.00;;
21843;SDS011;11084;52.482;9.108;2023-04-10T05:05:41;22.77;;;8.77;;
21843;SDS011;11084;52.482;9.108;2023-04-10T05:08:18;14.57;;;7.40;;
21843;SDS011;11084;52.482;9.108;2023-04-10T05:11:20;14.73;;;7.67;;
21843;SDS011;11084;52.482;9.108;2023-04-10T05:14:16;14.97;;;6.67;;
21843;SDS011;11084;52.482;9.108;2023-04-10T05:16:57;12.97;;;6.87;;
21843;SDS011;11084;52.482;9.108;2023-04-10T05:19:41;16.93;;;8.30;;
21843;SDS011;11084;52.482;9.108;2023-04-10T05:22:33;12.30;;;6.50;;
21843;SDS011;11084;52.482;9.108;2023-04-10T05:25:26;14.33;;;7.20;;
21843;SDS011;11084;52.482;9.108;2023-04-10T05:28:08;15.03;;;6.93;;
21843;SDS011;11084;52.482;9.108;2023-04-10T05:30:52;13.90;;;6.37;;
21843;SDS011;11084;52.482;9.108;2023-04-10T05:33:44;14.37;;;7.50;;
21843;SDS011;11084;52.482;9.108;2023-04-10T05:36:36;15.47;;;7.43;;
21843;SDS011;11084;52.482;9.108;2023-04-10T05:39:19;20.50;;;7.73;;
21843;SDS011;11084;52.482;9.108;2023-04-10T05:42:20;14.23;;;7.17;;
21843;SDS011;11084;52.482;9.108;2023-04-10T05:45:05;14.23;;;7.27;;
21843;SDS011;11084;52.482;9.108;2023-04-10T05:47:42;14.40;;;7.47;;
21843;SDS011;11084;52.482;9.108;2023-04-10T05:50:18;12.80;;;6.53;;
21843;SDS011;11084;52.482;9.108;2023-04-10T05:53:11;18.40;;;7.70;;
21843;SDS011;11084;52.482;9.108;2023-04-10T05:56:02;14.00;;;7.20;;
21843;SDS011;11084;52.482;9.108;2023-04-10T05:58:45;16.33;;;8.03;;
21843;SDS011;11084;52.482;9.108;2023-04-10T06:01:11;14.90;;;7.83;;
21843;SDS011;11084;52.482;9.108;2023-04-10T06:03:37;20.10;;;8.10;;
21843;SDS011;11084;52.482;9.108;2023-04-10T06:06:05;18.63;;;8.00;;
21843;SDS011;11084;52.482;9.108;2023-04-10T06:08:32;17.63;;;8.57;;
21843;SDS011;11084;52.482;9.108;2023-04-10T06:10:59;13.33;;;7.07;;
21843;SDS011;11084;52.482;9.108;2023-04-10T06:13:25;16.13;;;7.97;;
21843;SDS011;11084;52.482;9.108;2023-04-10T06:15:55;14.80;;;7.23;;
21843;SDS011;11084;52.482;9.108;2023-04-10T06:18:22;14.57;;;7.23;;
21843;SDS011;11084;52.482;9.108;2023-04-10T06:20:48;13.87;;;7.27;;
21843;SDS011;11084;52.482;9.108;2023-04-10T06:23:29;13.73;;;7.53;;
21843;SDS011;11084;52.482;9.108;2023-04-10T06:25:55;12.73;;;7.43;;
21843;SDS011;11084;52.482;9.108;2023-04-10T06:28:22;18.70;;;8.20;;
21843;SDS011;11084;52.482;9.108;2023-04-10T06:30:53;13.30;;;6.83;;
21843;SDS011;11084;52.482;9.108;2023-04-10T06:33:26;13.17;;;7.57;;
21843;SDS011;11084;52.482;9.108;2023-04-10T06:35:53;15.23;;;7.37;;
21843;SDS011;11084;52.482;9.108;2023-04-10T06:38:20;11.77;;;6.57;;
21843;SDS011;11084;52.482;9.108;2023-04-10T06:40:46;12.60;;;6.67;;
21843;SDS011;11084;52.482;9.108;2023-04-10T06:43:12;14.23;;;6.60;;
21843;SDS011;11084;52.482;9.108;2023-04-10T06:45:38;11.00;;;5.37;;
21843;SDS011;11084;52.482;9.108;2023-04-10T06:48:05;13.37;;;6.97;;
21843;SDS011;11084;52.482;9.108;2023-04-10T06:50:31;12.30;;;6.40;;
21843;SDS011;11084;52.482;9.108;2023-04-10T06:52:58;11.17;;;5.73;;
21843;SDS011;11084;52.482;9.108;2023-04-10T06:55:24;14.87;;;6.57;;
21843;SDS011;11084;52.482;9.108;2023-04-10T06:58:01;13.90;;;6.63;;
21843;SDS011;11084;52.482;9.108;2023-04-10T07:00:28;11.47;;;6.60;;
21843;SDS011;11084;52.482;9.108;2023-04-10T07:02:55;14.23;;;6.07;;
21843;SDS011;11084;52.482;9.108;2023-04-10T07:05:21;15.30;;;5.90;;
21843;SDS011;11084;52.482;9.108;2023-04-10T07:07:52;12.57;;;6.17;;
21843;SDS011;11084;52.482;9.108;2023-04-10T07:10:18;10.53;;;6.43;;
21843;SDS011;11084;52.482;9.108;2023-04-10T07:12:44;12.27;;;5.90;;
21843;SDS011;11084;52.482;9.108;2023-04-10T07:15:10;11.07;;;6.37;;
21843;SDS011;11084;52.482;9.108;2023-04-10T07:17:37;11.70;;;6.07;;
21843;SDS011;11084;52.482;9.108;2023-04-10T07:20:10;11.43;;;5.60;;
21843;SDS011;11084;52.482;9.108;2023-04-10T07:22:42;10.30;;;4.93;;
21843;SDS011;11084;52.482;9.108;2023-04-10T07:25:11;10.00;;;5.40;;
21843;SDS011;11084;52.482;9.108;2023-04-10T07:27:45;7.63;;;5.10;;
21843;SDS011;11084;52.482;9.108;2023-04-10T07:30:11;12.63;;;6.30;;
21843;SDS011;11084;52.482;9.108;2023-04-10T07:32:41;14.03;;;5.70;;
21843;SDS011;11084;52.482;9.108;2023-04-10T07:35:12;9.00;;;5.37;;
21843;SDS011;11084;52.482;9.108;2023-04-10T07:37:47;10.63;;;5.30;;
21843;SDS011;11084;52.482;9.108;2023-04-10T07:40:16;8.67;;;5.17;;
21843;SDS011;11084;52.482;9.108;2023-04-10T07:42:42;8.27;;;4.63;;
21843;SDS011;11084;52.482;9.108;2023-04-10T07:45:08;10.70;;;5.87;;
21843;SDS011;11084;52.482;9.108;2023-04-10T07:47:35;11.70;;;5.93;;
21843;SDS011;11084;52.482;9.108;2023-04-10T07:50:04;9.83;;;5.23;;
21843;SDS011;11084;52.482;9.108;2023-04-10T07:52:57;8.60;;;4.80;;
21843;SDS011;11084;52.482;9.108;2023-04-10T07:55:36;8.63;;;4.67;;
21843;SDS011;11084;52.482;9.108;2023-04-10T07:58:12;9.23;;;5.43;;
21843;SDS011;11084;52.482;9.108;2023-04-10T08:00:39;13.40;;;5.43;;
21843;SDS011;11084;52.482;9.108;2023-04-10T08:03:05;8.53;;;4.93;;
21843;SDS011;11084;52.482;9.108;2023-04-10T08:05:31;9.47;;;5.07;;
21843;SDS011;11084;52.482;9.108;2023-04-10T08:07:58;8.33;;;5.03;;
21843;SDS011;11084;52.482;9.108;2023-04-10T08:10:24;7.63;;;4.40;;
21843;SDS011;11084;52.482;9.108;2023-04-10T08:12:50;7.37;;;4.00;;
21843;SDS011;11084;52.482;9.108;2023-04-10T08:15:16;7.83;;;4.33;;
21843;SDS011;11084;52.482;9.108;2023-04-10T08:17:42;8.97;;;4.67;;
21843;SDS011;11084;52.482;9.108;2023-04-10T08:20:09;6.97;;;4.30;;
21843;SDS011;11084;52.482;9.108;2023-04-10T08:22:36;5.37;;;3.63;;
21843;SDS011;11084;52.482;9.108;2023-04-10T08:25:03;7.23;;;3.83;;
21843;SDS011;11084;52.482;9.108;2023-04-10T08:27:31;8.80;;;4.70;;
21843;SDS011;11084;52.482;9.108;2023-04-10T08:29:57;7.10;;;4.57;;
21843;SDS011;11084;52.482;9.108;2023-04-10T08:32:23;8.40;;;4.47;;
21843;SDS011;11084;52.482;9.108;2023-04-10T08:34:50;6.67;;;4.33;;
21843;SDS011;11084;52.482;9.108;2023-04-10T08:37:17;8.07;;;4.47;;
21843;SDS011;11084;52.482;9.108;2023-04-10T08:39:43;7.03;;;4.50;;
21843;SDS011;11084;52.482;9.108;2023-04-10T08:42:10;7.90;;;4.53;;
21843;SDS011;11084;52.482;9.108;2023-04-10T08:44:36;7.10;;;4.10;;
21843;SDS011;11084;52.482;9.108;2023-04-10T08:47:04;9.03;;;4.70;;
21843;SDS011;11084;52.482;9.108;2023-04-10T08:49:42;7.43;;;4.23;;
21843;SDS011;11084;52.482;9.108;2023-04-10T08:52:23;7.00;;;3.87;;
21843;SDS011;11084;52.482;9.108;2023-04-10T08:54:52;6.43;;;4.17;;
21843;SDS011;11084;52.482;9.108;2023-04-10T08:57:20;8.47;;;4.20;;
21843;SDS011;11084;52.482;9.108;2023-04-10T08:59:47;6.73;;;4.27;;
21843;SDS011;11084;52.482;9.108;2023-04-10T09:02:18;6.53;;;4.03;;
21843;SDS011;11084;52.482;9.108;2023-04-10T09:04:46;5.80;;;4.00;;
21843;SDS011;11084;52.482;9.108;2023-04-10T09:07:15;6.83;;;3.97;;
21843;SDS011;11084;52.482;9.108;2023-04-10T09:09:42;7.93;;;4.53;;
21843;SDS011;11084;52.482;9.108;2023-04-10T09:12:08;6.70;;;4.10;;
21843;SDS011;11084;52.482;9.108;2023-04-10T09:14:36;8.10;;;5.03;;
21843;SDS011;11084;52.482;9.108;2023-04-10T09:17:15;6.30;;;4.20;;
21843;SDS011;11084;52.482;9.108;2023-04-10T09:19:43;7.30;;;4.43;;
21843;SDS011;11084;52.482;9.108;2023-04-10T09:22:14;8.27;;;4.47;;
21843;SDS011;11084;52.482;9.108;2023-04-10T09:24:41;8.97;;;5.13;;
21843;SDS011;11084;52.482;9.108;2023-04-10T09:27:09;8.87;;;5.17;;
21843;SDS011;11084;52.482;9.108;2023-04-10T09:29:52;8.03;;;4.40;;
21843;SDS011;11084;52.482;9.108;2023-04-10T09:35:06;9.30;;;5.43;;
21843;SDS011;11084;52.482;9.108;2023-04-10T09:37:34;8.27;;;4.67;;
21843;SDS011;11084;52.482;9.108;2023-04-10T09:40:01;6.83;;;4.20;;
21843;SDS011;11084;52.482;9.108;2023-04-10T09:42:31;7.03;;;4.27;;
21843;SDS011;11084;52.482;9.108;2023-04-10T09:45:02;7.17;;;4.17;;
21843;SDS011;11084;52.482;9.108;2023-04-10T09:47:29;6.67;;;4.33;;
21843;SDS011;11084;52.482;9.108;2023-04-10T09:49:57;5.37;;;3.63;;
21843;SDS011;11084;52.482;9.108;2023-04-10T09:54:58;7.03;;;4.33;;
21843;SDS011;11084;52.482;9.108;2023-04-10T09:57:33;6.83;;;4.37;;
21843;SDS011;11084;52.482;9.108;2023-04-10T10:00:01;5.93;;;3.87;;
21843;SDS011;11084;52.482;9.108;2023-04-10T10:02:35;6.77;;;4.20;;
21843;SDS011;11084;52.482;9.108;2023-04-10T10:05:05;7.40;;;3.77;;
21843;SDS011;11084;52.482;9.108;2023-04-10T10:07:32;5.97;;;3.43;;
21843;SDS011;11084;52.482;9.108;2023-04-10T10:09:59;4.73;;;3.43;;
21843;SDS011;11084;52.482;9.108;2023-04-10T10:12:50;4.73;;;3.07;;
21843;SDS011;11084;52.482;9.108;2023-04-10T10:15:22;6.70;;;3.63;;
21843;SDS011;11084;52.482;9.108;2023-04-10T10:17:57;3.93;;;2.90;;
21843;SDS011;11084;52.482;9.108;2023-04-10T10:20:50;4.20;;;2.80;;
21843;SDS011;11084;52.482;9.108;2023-04-10T10:23:18;7.10;;;3.90;;
21843;SDS011;11084;52.482;9.108;2023-04-10T10:25:46;5.27;;;3.30;;
21843;SDS011;11084;52.482;9.108;2023-04-10T10:28:14;3.87;;;2.90;;
21843;SDS011;11084;52.482;9.108;2023-04-10T10:30:43;4.57;;;3.30;;
21843;SDS011;11084;52.482;9.108;2023-04-10T10:33:10;4.03;;;3.07;;
21843;SDS011;11084;52.482;9.108;2023-04-10T10:35:38;5.90;;;3.70;;
21843;SDS011;11084;52.482;9.108;2023-04-10T10:38:05;6.57;;;3.33;;
21843;SDS011;11084;52.482;9.108;2023-04-10T10:46:11;4.00;;;2.73;;
21843;SDS011;11084;52.482;9.108;2023-04-10T10:48:54;6.60;;;3.33;;
21843;SDS011;11084;52.482;9.108;2023-04-10T10:51:22;5.20;;;3.27;;
21843;SDS011;11084;52.482;9.108;2023-04-10T10:53:48;5.37;;;3.50;;
21843;SDS011;11084;52.482;9.108;2023-04-10T10:58:55;4.70;;;3.10;;
21843;SDS011;11084;52.482;9.108;2023-04-10T11:01:22;5.30;;;3.40;;
21843;SDS011;11084;52.482;9.108;2023-04-10T11:03:49;4.30;;;2.90;;
21843;SDS011;11084;52.482;9.108;2023-04-10T11:06:16;5.80;;;3.17;;
21843;SDS011;11084;52.482;9.108;2023-04-10T11:08:47;4.70;;;2.97;;
21843;SDS011;11084;52.482;9.108;2023-04-10T11:11:17;5.33;;;2.87;;
21843;SDS011;11084;52.482;9.108;2023-04-10T11:19:08;4.30;;;2.70;;
21843;SDS011;11084;52.482;9.108;2023-04-10T11:22:22;3.00;;;2.37;;
21843;SDS011;11084;52.482;9.108;2023-04-10T11:24:28;3.63;;;2.47;;
21843;SDS011;11084;52.482;9.108;2023-04-10T11:27:36;4.60;;;2.70;;
21843;SDS011;11084;52.482;9.108;2023-04-10T11:30:31;3.03;;;2.27;;
21843;SDS011;11084;52.482;9.108;2023-04-10T11:33:00;3.60;;;2.47;;
21843;SDS011;11084;52.482;9.108;2023-04-10T11:35:29;2.77;;;2.03;;
21843;SDS011;11084;52.482;9.108;2023-04-10T11:38:12;3.23;;;2.47;;
21843;SDS011;11084;52.482;9.108;2023-04-10T11:40:57;4.47;;;2.57;;
21843;SDS011;11084;52.482;9.108;2023-04-10T11:43:29;3.30;;;2.37;;
21843;SDS011;11084;52.482;9.108;2023-04-10T11:46:00;2.40;;;2.10;;
21843;SDS011;11084;52.482;9.108;2023-04-10T11:48:31;3.23;;;2.20;;
21843;SDS011;11084;52.482;9.108;2023-04-10T11:50:58;2.63;;;1.90;;
21843;SDS011;11084;52.482;9.108;2023-04-10T11:53:31;4.73;;;2.50;;
21843;SDS011;11084;52.482;9.108;2023-04-10T11:55:57;2.87;;;1.93;;
21843;SDS011;11084;52.482;9.108;2023-04-10T11:58:27;3.20;;;2.40;;
21843;SDS011;11084;52.482;9.108;2023-04-10T12:01:01;3.03;;;2.03;;
21843;SDS011;11084;52.482;9.108;2023-04-10T12:03:36;2.57;;;2.03;;
21843;SDS011;11084;52.482;9.108;2023-04-10T12:06:09;2.77;;;2.00;;
21843;SDS011;11084;52.482;9.108;2023-04-10T12:08:41;3.63;;;2.23;;
21843;SDS011;11084;52.482;9.108;2023-04-10T12:11:24;2.13;;;1.90;;
21843;SDS011;11084;52.482;9.108;2023-04-10T12:13:53;4.27;;;2.57;;
21843;SDS011;11084;52.482;9.108;2023-04-10T12:16:21;3.73;;;2.03;;
21843;SDS011;11084;52.482;9.108;2023-04-10T12:18:51;3.77;;;2.03;;
21843;SDS011;11084;52.482;9.108;2023-04-10T12:21:17;3.10;;;1.87;;
21843;SDS011;11084;52.482;9.108;2023-04-10T12:23:44;5.77;;;2.17;;
21843;SDS011;11084;52.482;9.108;2023-04-10T12:26:14;3.03;;;2.20;;
21843;SDS011;11084;52.482;9.108;2023-04-10T12:29:03;3.10;;;2.33;;
21843;SDS011;11084;52.482;9.108;2023-04-10T12:31:31;2.97;;;2.00;;
21843;SDS011;11084;52.482;9.108;2023-04-10T12:34:20;2.00;;;1.70;;
21843;SDS011;11084;52.482;9.108;2023-04-10T12:36:50;4.23;;;2.63;;
21843;SDS011;11084;52.482;9.108;2023-04-10T12:39:21;3.27;;;2.30;;
21843;SDS011;11084;52.482;9.108;2023-04-10T12:41:49;3.13;;;2.20;;
21843;SDS011;11084;52.482;9.108;2023-04-10T12:44:16;4.93;;;2.00;;
21843;SDS011;11084;52.482;9.108;2023-04-10T12:46:43;4.23;;;2.43;;
21843;SDS011;11084;52.482;9.108;2023-04-10T12:51:46;2.83;;;2.30;;
21843;SDS011;11084;52.482;9.108;2023-04-10T12:54:26;8.73;;;2.50;;
21843;SDS011;11084;52.482;9.108;2023-04-10T12:56:56;3.30;;;2.30;;
21843;SDS011;11084;52.482;9.108;2023-04-10T12:59:23;3.63;;;2.30;;
21843;SDS011;11084;52.482;9.108;2023-04-10T13:01:51;4.53;;;2.30;;
21843;SDS011;11084;52.482;9.108;2023-04-10T13:04:18;3.30;;;2.30;;
21843;SDS011;11084;52.482;9.108;2023-04-10T13:06:44;3.70;;;2.60;;
21843;SDS011;11084;52.482;9.108;2023-04-10T13:09:12;3.03;;;2.30;;
21843;SDS011;11084;52.482;9.108;2023-04-10T13:11:40;4.10;;;2.40;;
21843;SDS011;11084;52.482;9.108;2023-04-10T13:14:07;4.63;;;2.53;;
21843;SDS011;11084;52.482;9.108;2023-04-10T13:16:33;3.77;;;2.13;;
21843;SDS011;11084;52.482;9.108;2023-04-10T13:19:00;3.07;;;2.37;;
21843;SDS011;11084;52.482;9.108;2023-04-10T13:21:26;4.03;;;2.20;;
21843;SDS011;11084;52.482;9.108;2023-04-10T13:23:55;3.27;;;2.40;;
21843;SDS011;11084;52.482;9.108;2023-04-10T13:26:23;3.57;;;2.27;;
21843;SDS011;11084;52.482;9.108;2023-04-10T13:28:49;4.67;;;2.40;;
21843;SDS011;11084;52.482;9.108;2023-04-10T13:31:15;3.30;;;2.10;;
21843;SDS011;11084;52.482;9.108;2023-04-10T13:33:45;3.33;;;2.10;;
21843;SDS011;11084;52.482;9.108;2023-04-10T13:36:13;4.30;;;2.40;;
21843;SDS011;11084;52.482;9.108;2023-04-10T13:38:39;5.27;;;2.57;;
21843;SDS011;11084;52.482;9.108;2023-04-10T13:41:06;3.57;;;2.20;;
21843;SDS011;11084;52.482;9.108;2023-04-10T13:43:32;3.00;;;2.30;;
21843;SDS011;11084;52.482;9.108;2023-04-10T13:45:58;3.93;;;2.27;;
21843;SDS011;11084;52.482;9.108;2023-04-10T13:48:24;2.50;;;2.00;;
21843;SDS011;11084;52.482;9.108;2023-04-10T13:50:51;2.23;;;1.80;;
21843;SDS011;11084;52.482;9.108;2023-04-10T13:53:17;3.93;;;2.33;;
21843;SDS011;11084;52.482;9.108;2023-04-10T13:55:43;3.20;;;2.17;;
21843;SDS011;11084;52.482;9.108;2023-04-10T13:58:11;3.63;;;2.27;;
21843;SDS011;11084;52.482;9.108;2023-04-10T14:00:38;3.37;;;2.17;;
21843;SDS011;11084;52.482;9.108;2023-04-10T14:03:04;2.87;;;2.27;;
21843;SDS011;11084;52.482;9.108;2023-04-10T14:05:34;2.87;;;2.30;;
21843;SDS011;11084;52.482;9.108;2023-04-10T14:08:00;3.30;;;2.60;;
21843;SDS011;11084;52.482;9.108;2023-04-10T14:10:26;5.50;;;2.70;;
21843;SDS011;11084;52.482;9.108;2023-04-10T14:12:52;6.67;;;2.60;;
21843;SDS011;11084;52.482;9.108;2023-04-10T14:15:18;2.80;;;2.00;;
21843;SDS011;11084;52.482;9.108;2023-04-10T14:17:45;3.27;;;2.07;;
21843;SDS011;11084;52.482;9.108;2023-04-10T14:20:11;2.63;;;2.10;;
21843;SDS011;11084;52.482;9.108;2023-04-10T14:22:37;3.87;;;2.37;;
21843;SDS011;11084;52.482;9.108;2023-04-10T14:25:04;1.80;;;1.63;;
21843;SDS011;11084;52.482;9.108;2023-04-10T14:27:32;3.43;;;2.37;;
21843;SDS011;11084;52.482;9.108;2023-04-10T14:29:58;2.83;;;2.20;;
21843;SDS011;11084;52.482;9.108;2023-04-10T14:32:25;3.83;;;2.37;;
21843;SDS011;11084;52.482;9.108;2023-04-10T14:34:51;3.30;;;2.20;;
21843;SDS011;11084;52.482;9.108;2023-04-10T14:37:17;5.37;;;2.43;;
21843;SDS011;11084;52.482;9.108;2023-04-10T14:39:43;3.03;;;1.87;;
21843;SDS011;11084;52.482;9.108;2023-04-10T14:42:09;3.70;;;2.03;;
21843;SDS011;11084;52.482;9.108;2023-04-10T14:44:35;2.77;;;2.20;;
21843;SDS011;11084;52.482;9.108;2023-04-10T14:47:01;3.47;;;1.90;;
21843;SDS011;11084;52.482;9.108;2023-04-10T14:49:30;3.93;;;2.10;;
21843;SDS011;11084;52.482;9.108;2023-04-10T14:51:56;4.07;;;2.40;;
21843;SDS011;11084;52.482;9.108;2023-04-10T14:54:22;3.50;;;2.47;;
21843;SDS011;11084;52.482;9.108;2023-04-10T14:56:49;2.13;;;1.90;;
21843;SDS011;11084;52.482;9.108;2023-04-10T14:59:15;2.97;;;2.10;;
21843;SDS011;11084;52.482;9.108;2023-04-10T15:01:42;3.90;;;2.40;;
21843;SDS011;11084;52.482;9.108;2023-04-10T15:04:08;2.83;;;2.00;;
21843;SDS011;11084;52.482;9.108;2023-04-10T15:06:35;2.00;;;1.53;;
21843;SDS011;11084;52.482;9.108;2023-04-10T15:09:02;2.73;;;1.97;;
21843;SDS011;11084;52.482;9.108;2023-04-10T15:11:28;2.17;;;1.80;;
21843;SDS011;11084;52.482;9.108;2023-04-10T15:13:54;3.00;;;1.80;;
21843;SDS011;11084;52.482;9.108;2023-04-10T15:16:22;2.30;;;1.57;;
21843;SDS011;11084;52.482;9.108;2023-04-10T15:18:48;5.20;;;1.67;;
21843;SDS011;11084;52.482;9.108;2023-04-10T15:21:14;1.80;;;1.40;;
21843;SDS011;11084;52.482;9.108;2023-04-10T15:23:40;2.83;;;1.67;;
21843;SDS011;11084;52.482;9.108;2023-04-10T15:26:13;1.70;;;1.30;;
21843;SDS011;11084;52.482;9.108;2023-04-10T15:28:40;2.07;;;1.27;;
21843;SDS011;11084;52.482;9.108;2023-04-10T15:31:09;2.33;;;1.60;;
21843;SDS011;11084;52.482;9.108;2023-04-10T15:33:36;3.30;;;1.53;;
21843;SDS011;11084;52.482;9.108;2023-04-10T15:36:03;2.53;;;1.30;;
21843;SDS011;11084;52.482;9.108;2023-04-10T15:38:33;1.87;;;1.27;;
21843;SDS011;11084;52.482;9.108;2023-04-10T15:41:00;1.37;;;1.17;;
21843;SDS011;11084;52.482;9.108;2023-04-10T15:43:33;3.67;;;1.50;;
21843;SDS011;11084;52.482;9.108;2023-04-10T15:45:59;2.40;;;1.50;;
21843;SDS011;11084;52.482;9.108;2023-04-10T15:48:26;1.57;;;1.33;;
21843;SDS011;11084;52.482;9.108;2023-04-10T15:50:53;2.00;;;1.20;;
21843;SDS011;11084;52.482;9.108;2023-04-10T15:53:19;1.87;;;1.20;;
21843;SDS011;11084;52.482;9.108;2023-04-10T15:55:45;1.30;;;1.20;;
21843;SDS011;11084;52.482;9.108;2023-04-10T15:58:11;1.57;;;1.40;;
21843;SDS011;11084;52.482;9.108;2023-04-10T16:00:37;2.60;;;1.40;;
21843;SDS011;11084;52.482;9.108;2023-04-10T16:03:04;1.53;;;1.23;;